sensor_id;sensor_type;location;lat;lon;timestamp;P1;durP1;ratioP1;P2;durP2;ratioP2
77220;SDS011;66217;50.004;8.266;2023-05-21T00:01:36;19.30;;;12.57;;
77220;SDS011;66217;50.004;8.266;2023-05-21T00:04:03;19.73;;;12.23;;
77220;SDS011;66217;50.004;8.266;2023-05-21T00:06:32;20.80;;;12.73;;
77220;SDS011;66217;50.004;8.266;2023-05-21T00:09:01;19.77;;;13.20;;
77220;SDS011;66217;50.004;8.266;2023-05-21T00:11:27;22.65;;;13.15;;
77220;SDS011;66217;50.004;8.266;2023-05-21T00:13:53;19.67;;;12.68;;
77220;SDS011;66217;50.004;8.266;2023-05-21T00:16:18;20.63;;;13.38;;
77220;SDS011;66217;50.004;8.266;2023-05-21T00:18:44;24.63;;;13.65;;
77220;SDS011;66217;50.004;8.266;2023-05-21T00:21:09;21.88;;;14.07;;
77220;SDS011;66217;50.004;8.266;2023-05-21T00:23:36;19.45;;;13.02;;
77220;SDS011;66217;50.004;8.266;2023-05-21T00:26:03;20.63;;;12.50;;
77220;SDS011;66217;50.004;8.266;2023-05-21T00:28:29;20.00;;;13.27;;
77220;SDS011;66217;50.004;8.266;2023-05-21T00:30:54;22.33;;;12.70;;
77220;SDS011;66217;50.004;8.266;2023-05-21T00:33:20;24.05;;;14.20;;
77220;SDS011;66217;50.004;8.266;2023-05-21T00:35:46;22.25;;;13.55;;
77220;SDS011;66217;50.004;8.266;2023-05-21T00:38:11;21.00;;;12.70;;
77220;SDS011;66217;50.004;8.266;2023-05-21T00:40:38;25.92;;;14.23;;
77220;SDS011;66217;50.004;8.266;2023-05-21T00:43:05;20.58;;;13.05;;
77220;SDS011;66217;50.004;8.266;2023-05-21T00:45:32;22.80;;;13.68;;
77220;SDS011;66217;50.004;8.266;2023-05-21T00:47:57;24.90;;;12.75;;
77220;SDS011;66217;50.004;8.266;2023-05-21T00:50:23;19.85;;;12.77;;
77220;SDS011;66217;50.004;8.266;2023-05-21T00:52:50;20.83;;;12.45;;
77220;SDS011;66217;50.004;8.266;2023-05-21T00:55:15;21.00;;;13.02;;
77220;SDS011;66217;50.004;8.266;2023-05-21T00:57:41;24.55;;;13.90;;
77220;SDS011;66217;50.004;8.266;2023-05-21T01:00:07;22.13;;;12.43;;
77220;SDS011;66217;50.004;8.266;2023-05-21T01:02:35;18.77;;;12.73;;
77220;SDS011;66217;50.004;8.266;2023-05-21T01:05:01;18.83;;;12.00;;
77220;SDS011;66217;50.004;8.266;2023-05-21T01:07:29;19.67;;;12.48;;
77220;SDS011;66217;50.004;8.266;2023-05-21T01:09:54;21.95;;;13.00;;
77220;SDS011;66217;50.004;8.266;2023-05-21T01:12:20;21.48;;;12.38;;
77220;SDS011;66217;50.004;8.266;2023-05-21T01:14:46;18.13;;;11.98;;
77220;SDS011;66217;50.004;8.266;2023-05-21T01:17:12;18.88;;;12.25;;
77220;SDS011;66217;50.004;8.266;2023-05-21T01:19:37;19.20;;;12.55;;
77220;SDS011;66217;50.004;8.266;2023-05-21T01:22:04;24.33;;;12.30;;
77220;SDS011;66217;50.004;8.266;2023-05-21T01:24:31;18.77;;;11.25;;
77220;SDS011;66217;50.004;8.266;2023-05-21T01:26:57;19.05;;;11.32;;
77220;SDS011;66217;50.004;8.266;2023-05-21T01:29:24;17.35;;;11.25;;
77220;SDS011;66217;50.004;8.266;2023-05-21T01:31:58;21.63;;;11.48;;
77220;SDS011;66217;50.004;8.266;2023-05-21T01:34:28;23.08;;;12.65;;
77220;SDS011;66217;50.004;8.266;2023-05-21T01:36:59;25.30;;;12.20;;
77220;SDS011;66217;50.004;8.266;2023-05-21T01:39:33;19.13;;;11.30;;
77220;SDS011;66217;50.004;8.266;2023-05-21T01:42:02;18.52;;;12.05;;
77220;SDS011;66217;50.004;8.266;2023-05-21T01:44:28;20.52;;;11.50;;
77220;SDS011;66217;50.004;8.266;2023-05-21T01:46:54;18.70;;;12.20;;
77220;SDS011;66217;50.004;8.266;2023-05-21T01:49:21;18.25;;;11.23;;
77220;SDS011;66217;50.004;8.266;2023-05-21T01:51:47;21.45;;;11.43;;
77220;SDS011;66217;50.004;8.266;2023-05-21T01:54:13;19.67;;;12.32;;
77220;SDS011;66217;50.004;8.266;2023-05-21T01:56:39;18.40;;;11.88;;
77220;SDS011;66217;50.004;8.266;2023-05-21T01:59:04;20.90;;;11.85;;
77220;SDS011;66217;50.004;8.266;2023-05-21T02:01:30;18.42;;;11.75;;
77220;SDS011;66217;50.004;8.266;2023-05-21T02:03:55;18.70;;;11.68;;
77220;SDS011;66217;50.004;8.266;2023-05-21T02:06:22;21.92;;;12.23;;
77220;SDS011;66217;50.004;8.266;2023-05-21T02:08:48;19.38;;;10.65;;
77220;SDS011;66217;50.004;8.266;2023-05-21T02:11:13;16.85;;;11.38;;
77220;SDS011;66217;50.004;8.266;2023-05-21T02:13:39;16.52;;;10.55;;
77220;SDS011;66217;50.004;8.266;2023-05-21T02:16:06;18.75;;;11.40;;
77220;SDS011;66217;50.004;8.266;2023-05-21T02:18:36;19.85;;;12.07;;
77220;SDS011;66217;50.004;8.266;2023-05-21T02:21:02;18.35;;;11.00;;
77220;SDS011;66217;50.004;8.266;2023-05-21T02:23:28;18.00;;;10.85;;
77220;SDS011;66217;50.004;8.266;2023-05-21T02:25:53;20.73;;;11.43;;
77220;SDS011;66217;50.004;8.266;2023-05-21T02:28:19;25.58;;;11.15;;
77220;SDS011;66217;50.004;8.266;2023-05-21T02:30:45;19.98;;;11.70;;
77220;SDS011;66217;50.004;8.266;2023-05-21T02:33:11;20.38;;;11.27;;
77220;SDS011;66217;50.004;8.266;2023-05-21T02:35:38;20.20;;;11.52;;
77220;SDS011;66217;50.004;8.266;2023-05-21T02:38:04;20.45;;;11.10;;
77220;SDS011;66217;50.004;8.266;2023-05-21T02:40:29;19.58;;;11.02;;
77220;SDS011;66217;50.004;8.266;2023-05-21T02:42:56;18.45;;;12.18;;
77220;SDS011;66217;50.004;8.266;2023-05-21T02:45:22;18.27;;;11.77;;
77220;SDS011;66217;50.004;8.266;2023-05-21T02:47:48;18.70;;;12.10;;
77220;SDS011;66217;50.004;8.266;2023-05-21T02:50:16;21.55;;;11.45;;
77220;SDS011;66217;50.004;8.266;2023-05-21T02:52:51;16.40;;;11.05;;
77220;SDS011;66217;50.004;8.266;2023-05-21T02:55:17;20.67;;;11.57;;
77220;SDS011;66217;50.004;8.266;2023-05-21T02:57:42;19.45;;;10.35;;
77220;SDS011;66217;50.004;8.266;2023-05-21T03:00:08;17.58;;;11.20;;
77220;SDS011;66217;50.004;8.266;2023-05-21T03:02:35;20.52;;;12.13;;
77220;SDS011;66217;50.004;8.266;2023-05-21T03:05:01;17.67;;;11.70;;
77220;SDS011;66217;50.004;8.266;2023-05-21T03:07:26;17.42;;;11.15;;
77220;SDS011;66217;50.004;8.266;2023-05-21T03:09:52;17.65;;;10.75;;
77220;SDS011;66217;50.004;8.266;2023-05-21T03:12:17;16.92;;;9.77;;
77220;SDS011;66217;50.004;8.266;2023-05-21T03:14:43;17.77;;;10.68;;
77220;SDS011;66217;50.004;8.266;2023-05-21T03:17:10;17.60;;;10.75;;
77220;SDS011;66217;50.004;8.266;2023-05-21T03:19:38;18.95;;;10.40;;
77220;SDS011;66217;50.004;8.266;2023-05-21T03:22:04;17.63;;;10.68;;
77220;SDS011;66217;50.004;8.266;2023-05-21T03:24:34;20.02;;;10.18;;
77220;SDS011;66217;50.004;8.266;2023-05-21T03:27:01;16.10;;;10.45;;
77220;SDS011;66217;50.004;8.266;2023-05-21T03:29:27;15.73;;;10.52;;
77220;SDS011;66217;50.004;8.266;2023-05-21T03:31:53;19.05;;;10.70;;
77220;SDS011;66217;50.004;8.266;2023-05-21T03:34:19;13.52;;;9.55;;
77220;SDS011;66217;50.004;8.266;2023-05-21T03:36:45;16.63;;;10.57;;
77220;SDS011;66217;50.004;8.266;2023-05-21T03:39:11;17.00;;;10.90;;
77220;SDS011;66217;50.004;8.266;2023-05-21T03:41:37;17.85;;;11.15;;
77220;SDS011;66217;50.004;8.266;2023-05-21T03:44:09;21.23;;;10.27;;
77220;SDS011;66217;50.004;8.266;2023-05-21T03:46:45;16.92;;;9.68;;
77220;SDS011;66217;50.004;8.266;2023-05-21T03:49:23;15.60;;;9.77;;
77220;SDS011;66217;50.004;8.266;2023-05-21T03:51:51;17.42;;;10.80;;
77220;SDS011;66217;50.004;8.266;2023-05-21T03:54:18;15.65;;;10.52;;
77220;SDS011;66217;50.004;8.266;2023-05-21T03:56:44;18.92;;;11.55;;
77220;SDS011;66217;50.004;8.266;2023-05-21T03:59:10;17.95;;;11.35;;
77220;SDS011;66217;50.004;8.266;2023-05-21T04:01:36;22.20;;;11.88;;
77220;SDS011;66217;50.004;8.266;2023-05-21T04:04:03;21.17;;;11.63;;
77220;SDS011;66217;50.004;8.266;2023-05-21T04:06:29;18.20;;;11.48;;
77220;SDS011;66217;50.004;8.266;2023-05-21T04:08:54;17.23;;;10.70;;
77220;SDS011;66217;50.004;8.266;2023-05-21T04:11:19;18.77;;;12.18;;
77220;SDS011;66217;50.004;8.266;2023-05-21T04:13:46;19.02;;;11.25;;
77220;SDS011;66217;50.004;8.266;2023-05-21T04:16:12;15.60;;;10.77;;
77220;SDS011;66217;50.004;8.266;2023-05-21T04:18:39;19.05;;;11.50;;
77220;SDS011;66217;50.004;8.266;2023-05-21T04:21:05;18.30;;;11.70;;
77220;SDS011;66217;50.004;8.266;2023-05-21T04:23:31;22.00;;;11.38;;
77220;SDS011;66217;50.004;8.266;2023-05-21T04:25:58;18.55;;;11.43;;
77220;SDS011;66217;50.004;8.266;2023-05-21T04:28:23;20.13;;;11.18;;
77220;SDS011;66217;50.004;8.266;2023-05-21T04:30:53;19.20;;;10.88;;
77220;SDS011;66217;50.004;8.266;2023-05-21T04:33:20;18.92;;;11.25;;
77220;SDS011;66217;50.004;8.266;2023-05-21T04:35:48;19.85;;;11.45;;
77220;SDS011;66217;50.004;8.266;2023-05-21T04:38:14;18.08;;;10.98;;
77220;SDS011;66217;50.004;8.266;2023-05-21T04:40:44;19.77;;;11.70;;
77220;SDS011;66217;50.004;8.266;2023-05-21T04:43:11;17.25;;;10.57;;
77220;SDS011;66217;50.004;8.266;2023-05-21T04:45:37;21.88;;;11.57;;
77220;SDS011;66217;50.004;8.266;2023-05-21T04:48:02;17.13;;;10.65;;
77220;SDS011;66217;50.004;8.266;2023-05-21T04:50:28;16.80;;;10.57;;
77220;SDS011;66217;50.004;8.266;2023-05-21T04:52:55;17.38;;;10.95;;
77220;SDS011;66217;50.004;8.266;2023-05-21T04:55:20;18.48;;;10.63;;
77220;SDS011;66217;50.004;8.266;2023-05-21T04:57:47;16.35;;;10.50;;
77220;SDS011;66217;50.004;8.266;2023-05-21T05:00:12;17.45;;;12.18;;
77220;SDS011;66217;50.004;8.266;2023-05-21T05:02:41;23.67;;;11.57;;
77220;SDS011;66217;50.004;8.266;2023-05-21T05:05:06;16.58;;;10.80;;
77220;SDS011;66217;50.004;8.266;2023-05-21T05:07:32;17.50;;;10.90;;
77220;SDS011;66217;50.004;8.266;2023-05-21T05:09:57;22.20;;;11.60;;
77220;SDS011;66217;50.004;8.266;2023-05-21T05:12:23;16.08;;;10.48;;
77220;SDS011;66217;50.004;8.266;2023-05-21T05:14:48;20.38;;;10.98;;
77220;SDS011;66217;50.004;8.266;2023-05-21T05:17:14;16.90;;;10.65;;
77220;SDS011;66217;50.004;8.266;2023-05-21T05:19:41;20.38;;;10.88;;
77220;SDS011;66217;50.004;8.266;2023-05-21T05:22:07;21.23;;;11.57;;
77220;SDS011;66217;50.004;8.266;2023-05-21T05:24:32;20.33;;;10.88;;
77220;SDS011;66217;50.004;8.266;2023-05-21T05:26:58;15.50;;;10.50;;
77220;SDS011;66217;50.004;8.266;2023-05-21T05:29:23;16.55;;;10.25;;
77220;SDS011;66217;50.004;8.266;2023-05-21T05:31:49;16.30;;;10.55;;
77220;SDS011;66217;50.004;8.266;2023-05-21T05:34:14;15.57;;;10.45;;
77220;SDS011;66217;50.004;8.266;2023-05-21T05:36:40;13.13;;;9.45;;
77220;SDS011;66217;50.004;8.266;2023-05-21T05:39:06;15.38;;;9.23;;
77220;SDS011;66217;50.004;8.266;2023-05-21T05:41:31;14.40;;;8.93;;
77220;SDS011;66217;50.004;8.266;2023-05-21T05:43:57;13.73;;;8.80;;
77220;SDS011;66217;50.004;8.266;2023-05-21T05:46:25;15.75;;;9.25;;
77220;SDS011;66217;50.004;8.266;2023-05-21T05:48:51;17.02;;;9.15;;
77220;SDS011;66217;50.004;8.266;2023-05-21T05:51:16;15.20;;;9.02;;
77220;SDS011;66217;50.004;8.266;2023-05-21T05:53:42;15.57;;;9.40;;
77220;SDS011;66217;50.004;8.266;2023-05-21T05:56:07;13.00;;;8.73;;
77220;SDS011;66217;50.004;8.266;2023-05-21T05:58:33;15.25;;;9.88;;
77220;SDS011;66217;50.004;8.266;2023-05-21T06:01:10;13.75;;;8.88;;
77220;SDS011;66217;50.004;8.266;2023-05-21T06:03:35;17.88;;;9.35;;
77220;SDS011;66217;50.004;8.266;2023-05-21T06:06:08;11.77;;;8.52;;
77220;SDS011;66217;50.004;8.266;2023-05-21T06:08:35;11.52;;;7.47;;
77220;SDS011;66217;50.004;8.266;2023-05-21T06:11:00;12.88;;;8.63;;
77220;SDS011;66217;50.004;8.266;2023-05-21T06:13:25;15.55;;;9.13;;
77220;SDS011;66217;50.004;8.266;2023-05-21T06:15:51;11.43;;;8.77;;
77220;SDS011;66217;50.004;8.266;2023-05-21T06:18:17;12.80;;;8.50;;
77220;SDS011;66217;50.004;8.266;2023-05-21T06:20:43;15.95;;;9.10;;
77220;SDS011;66217;50.004;8.266;2023-05-21T06:23:08;12.38;;;8.48;;
77220;SDS011;66217;50.004;8.266;2023-05-21T06:25:35;14.45;;;8.95;;
77220;SDS011;66217;50.004;8.266;2023-05-21T06:28:00;11.48;;;7.95;;
77220;SDS011;66217;50.004;8.266;2023-05-21T06:30:28;18.58;;;8.98;;
77220;SDS011;66217;50.004;8.266;2023-05-21T06:32:53;14.13;;;8.63;;
77220;SDS011;66217;50.004;8.266;2023-05-21T06:35:18;12.15;;;7.97;;
77220;SDS011;66217;50.004;8.266;2023-05-21T06:37:44;13.65;;;8.45;;
77220;SDS011;66217;50.004;8.266;2023-05-21T06:40:10;13.90;;;8.20;;
77220;SDS011;66217;50.004;8.266;2023-05-21T06:42:37;15.48;;;8.77;;
77220;SDS011;66217;50.004;8.266;2023-05-21T06:45:31;10.52;;;8.40;;
77220;SDS011;66217;50.004;8.266;2023-05-21T06:48:02;12.82;;;8.60;;
77220;SDS011;66217;50.004;8.266;2023-05-21T06:50:28;12.63;;;8.05;;
77220;SDS011;66217;50.004;8.266;2023-05-21T06:52:54;12.32;;;8.70;;
77220;SDS011;66217;50.004;8.266;2023-05-21T06:55:19;11.43;;;8.27;;
77220;SDS011;66217;50.004;8.266;2023-05-21T06:58:08;11.88;;;8.80;;
77220;SDS011;66217;50.004;8.266;2023-05-21T07:00:33;9.48;;;7.68;;
77220;SDS011;66217;50.004;8.266;2023-05-21T07:02:59;10.32;;;8.27;;
77220;SDS011;66217;50.004;8.266;2023-05-21T07:05:24;10.23;;;8.05;;
77220;SDS011;66217;50.004;8.266;2023-05-21T07:07:50;14.32;;;7.97;;
77220;SDS011;66217;50.004;8.266;2023-05-21T07:10:15;15.65;;;7.65;;
77220;SDS011;66217;50.004;8.266;2023-05-21T07:12:40;12.57;;;8.40;;
77220;SDS011;66217;50.004;8.266;2023-05-21T07:15:06;11.95;;;7.90;;
77220;SDS011;66217;50.004;8.266;2023-05-21T07:17:33;12.32;;;8.32;;
77220;SDS011;66217;50.004;8.266;2023-05-21T07:19:59;11.55;;;7.88;;
77220;SDS011;66217;50.004;8.266;2023-05-21T07:22:25;9.02;;;7.78;;
77220;SDS011;66217;50.004;8.266;2023-05-21T07:24:50;11.45;;;8.30;;
77220;SDS011;66217;50.004;8.266;2023-05-21T07:27:16;11.93;;;8.10;;
77220;SDS011;66217;50.004;8.266;2023-05-21T07:29:41;9.93;;;7.90;;
77220;SDS011;66217;50.004;8.266;2023-05-21T07:32:07;10.48;;;8.57;;
77220;SDS011;66217;50.004;8.266;2023-05-21T07:34:34;12.43;;;8.15;;
77220;SDS011;66217;50.004;8.266;2023-05-21T07:36:59;9.05;;;7.40;;
77220;SDS011;66217;50.004;8.266;2023-05-21T07:39:25;12.40;;;8.07;;
77220;SDS011;66217;50.004;8.266;2023-05-21T07:41:51;11.85;;;7.50;;
77220;SDS011;66217;50.004;8.266;2023-05-21T07:44:16;9.65;;;8.23;;
77220;SDS011;66217;50.004;8.266;2023-05-21T07:46:44;11.77;;;7.25;;
77220;SDS011;66217;50.004;8.266;2023-05-21T07:49:10;11.23;;;8.05;;
77220;SDS011;66217;50.004;8.266;2023-05-21T07:51:41;9.82;;;7.55;;
77220;SDS011;66217;50.004;8.266;2023-05-21T07:54:09;12.75;;;8.00;;
77220;SDS011;66217;50.004;8.266;2023-05-21T07:56:35;11.38;;;8.07;;
77220;SDS011;66217;50.004;8.266;2023-05-21T07:59:01;9.65;;;7.35;;
77220;SDS011;66217;50.004;8.266;2023-05-21T08:01:27;12.15;;;8.25;;
77220;SDS011;66217;50.004;8.266;2023-05-21T08:03:56;10.27;;;8.35;;
77220;SDS011;66217;50.004;8.266;2023-05-21T08:06:24;11.43;;;7.60;;
77220;SDS011;66217;50.004;8.266;2023-05-21T08:08:50;12.25;;;8.00;;
77220;SDS011;66217;50.004;8.266;2023-05-21T08:11:16;11.75;;;8.57;;
77220;SDS011;66217;50.004;8.266;2023-05-21T08:13:42;10.15;;;8.13;;
77220;SDS011;66217;50.004;8.266;2023-05-21T08:16:10;8.52;;;7.68;;
77220;SDS011;66217;50.004;8.266;2023-05-21T08:18:35;9.50;;;8.13;;
77220;SDS011;66217;50.004;8.266;2023-05-21T08:21:01;8.95;;;7.28;;
77220;SDS011;66217;50.004;8.266;2023-05-21T08:23:28;11.00;;;8.00;;
77220;SDS011;66217;50.004;8.266;2023-05-21T08:25:57;11.93;;;8.30;;
77220;SDS011;66217;50.004;8.266;2023-05-21T08:28:23;10.60;;;7.93;;
77220;SDS011;66217;50.004;8.266;2023-05-21T08:30:50;9.05;;;7.60;;
77220;SDS011;66217;50.004;8.266;2023-05-21T08:33:15;9.88;;;7.72;;
77220;SDS011;66217;50.004;8.266;2023-05-21T08:35:42;12.75;;;8.10;;
77220;SDS011;66217;50.004;8.266;2023-05-21T08:38:28;12.43;;;8.70;;
77220;SDS011;66217;50.004;8.266;2023-05-21T08:40:57;11.65;;;8.50;;
77220;SDS011;66217;50.004;8.266;2023-05-21T08:43:24;11.23;;;8.10;;
77220;SDS011;66217;50.004;8.266;2023-05-21T08:45:55;11.13;;;8.23;;
77220;SDS011;66217;50.004;8.266;2023-05-21T08:48:25;10.43;;;7.85;;
77220;SDS011;66217;50.004;8.266;2023-05-21T08:50:51;10.35;;;7.75;;
77220;SDS011;66217;50.004;8.266;2023-05-21T08:53:22;13.10;;;8.35;;
77220;SDS011;66217;50.004;8.266;2023-05-21T08:55:49;14.07;;;8.68;;
77220;SDS011;66217;50.004;8.266;2023-05-21T08:58:17;11.63;;;8.00;;
77220;SDS011;66217;50.004;8.266;2023-05-21T09:00:43;10.73;;;8.02;;
77220;SDS011;66217;50.004;8.266;2023-05-21T09:03:09;9.82;;;8.02;;
77220;SDS011;66217;50.004;8.266;2023-05-21T09:05:41;11.02;;;8.73;;
77220;SDS011;66217;50.004;8.266;2023-05-21T09:08:13;12.48;;;7.93;;
77220;SDS011;66217;50.004;8.266;2023-05-21T09:10:59;13.43;;;8.45;;
77220;SDS011;66217;50.004;8.266;2023-05-21T09:13:30;8.63;;;7.43;;
77220;SDS011;66217;50.004;8.266;2023-05-21T09:15:57;11.43;;;8.35;;
77220;SDS011;66217;50.004;8.266;2023-05-21T09:18:23;10.30;;;8.50;;
77220;SDS011;66217;50.004;8.266;2023-05-21T09:23:47;9.95;;;8.18;;
77220;SDS011;66217;50.004;8.266;2023-05-21T09:26:20;11.32;;;7.97;;
77220;SDS011;66217;50.004;8.266;2023-05-21T09:28:46;10.32;;;7.57;;
77220;SDS011;66217;50.004;8.266;2023-05-21T09:31:11;11.60;;;7.38;;
77220;SDS011;66217;50.004;8.266;2023-05-21T09:33:38;10.07;;;8.25;;
77220;SDS011;66217;50.004;8.266;2023-05-21T09:36:11;12.70;;;7.85;;
77220;SDS011;66217;50.004;8.266;2023-05-21T09:38:37;9.65;;;8.30;;
77220;SDS011;66217;50.004;8.266;2023-05-21T09:41:03;10.30;;;7.70;;
77220;SDS011;66217;50.004;8.266;2023-05-21T09:43:30;12.27;;;7.95;;
77220;SDS011;66217;50.004;8.266;2023-05-21T09:45:56;10.50;;;8.10;;
77220;SDS011;66217;50.004;8.266;2023-05-21T09:48:35;12.98;;;8.73;;
77220;SDS011;66217;50.004;8.266;2023-05-21T09:51:16;11.50;;;8.43;;
77220;SDS011;66217;50.004;8.266;2023-05-21T09:56:22;9.18;;;7.88;;
77220;SDS011;66217;50.004;8.266;2023-05-21T09:58:53;11.88;;;6.97;;
77220;SDS011;66217;50.004;8.266;2023-05-21T10:01:19;8.65;;;7.10;;
77220;SDS011;66217;50.004;8.266;2023-05-21T10:03:45;9.95;;;7.10;;
77220;SDS011;66217;50.004;8.266;2023-05-21T10:06:14;8.85;;;7.28;;
77220;SDS011;66217;50.004;8.266;2023-05-21T10:08:41;9.20;;;7.03;;
77220;SDS011;66217;50.004;8.266;2023-05-21T10:11:09;9.57;;;7.47;;
77220;SDS011;66217;50.004;8.266;2023-05-21T10:13:37;8.40;;;7.20;;
77220;SDS011;66217;50.004;8.266;2023-05-21T10:16:04;9.45;;;7.93;;
77220;SDS011;66217;50.004;8.266;2023-05-21T10:18:29;11.20;;;8.20;;
77220;SDS011;66217;50.004;8.266;2023-05-21T10:20:55;12.10;;;8.07;;
77220;SDS011;66217;50.004;8.266;2023-05-21T10:23:22;8.43;;;7.60;;
77220;SDS011;66217;50.004;8.266;2023-05-21T10:25:48;9.63;;;7.82;;
77220;SDS011;66217;50.004;8.266;2023-05-21T10:28:15;9.52;;;7.68;;
77220;SDS011;66217;50.004;8.266;2023-05-21T10:30:41;8.07;;;7.28;;
77220;SDS011;66217;50.004;8.266;2023-05-21T10:33:06;9.52;;;7.53;;
77220;SDS011;66217;50.004;8.266;2023-05-21T10:35:32;11.85;;;7.47;;
77220;SDS011;66217;50.004;8.266;2023-05-21T10:37:58;12.90;;;8.60;;
77220;SDS011;66217;50.004;8.266;2023-05-21T10:40:27;9.00;;;7.25;;
77220;SDS011;66217;50.004;8.266;2023-05-21T10:43:03;9.82;;;7.78;;
77220;SDS011;66217;50.004;8.266;2023-05-21T10:45:49;8.52;;;7.20;;
77220;SDS011;66217;50.004;8.266;2023-05-21T10:56:22;10.27;;;7.80;;
77220;SDS011;66217;50.004;8.266;2023-05-21T10:58:53;9.50;;;7.90;;
77220;SDS011;66217;50.004;8.266;2023-05-21T11:01:25;10.23;;;8.20;;
77220;SDS011;66217;50.004;8.266;2023-05-21T11:03:52;8.48;;;7.57;;
77220;SDS011;66217;50.004;8.266;2023-05-21T11:06:22;9.23;;;8.07;;
77220;SDS011;66217;50.004;8.266;2023-05-21T11:08:49;12.52;;;8.35;;
77220;SDS011;66217;50.004;8.266;2023-05-21T11:14:25;10.85;;;8.18;;
77220;SDS011;66217;50.004;8.266;2023-05-21T11:19:34;11.10;;;8.48;;
77220;SDS011;66217;50.004;8.266;2023-05-21T11:22:04;11.63;;;8.52;;
77220;SDS011;66217;50.004;8.266;2023-05-21T11:24:35;11.13;;;7.90;;
77220;SDS011;66217;50.004;8.266;2023-05-21T11:27:01;11.02;;;8.65;;
77220;SDS011;66217;50.004;8.266;2023-05-21T11:29:37;11.52;;;7.60;;
77220;SDS011;66217;50.004;8.266;2023-05-21T11:32:05;12.88;;;7.85;;
77220;SDS011;66217;50.004;8.266;2023-05-21T11:34:45;10.75;;;7.80;;
77220;SDS011;66217;50.004;8.266;2023-05-21T11:39:45;9.80;;;8.13;;
77220;SDS011;66217;50.004;8.266;2023-05-21T11:42:11;10.80;;;7.68;;
77220;SDS011;66217;50.004;8.266;2023-05-21T11:47:03;11.07;;;7.95;;
77220;SDS011;66217;50.004;8.266;2023-05-21T11:49:29;12.23;;;8.20;;
77220;SDS011;66217;50.004;8.266;2023-05-21T11:51:55;10.38;;;8.63;;
77220;SDS011;66217;50.004;8.266;2023-05-21T11:54:23;11.48;;;8.10;;
77220;SDS011;66217;50.004;8.266;2023-05-21T11:56:49;11.93;;;8.30;;
77220;SDS011;66217;50.004;8.266;2023-05-21T11:59:15;9.70;;;7.68;;
77220;SDS011;66217;50.004;8.266;2023-05-21T12:01:41;8.75;;;7.75;;
77220;SDS011;66217;50.004;8.266;2023-05-21T12:04:07;14.05;;;7.90;;
77220;SDS011;66217;50.004;8.266;2023-05-21T12:06:33;11.07;;;8.00;;
77220;SDS011;66217;50.004;8.266;2023-05-21T12:08:58;10.68;;;8.65;;
77220;SDS011;66217;50.004;8.266;2023-05-21T12:11:24;11.20;;;8.55;;
77220;SDS011;66217;50.004;8.266;2023-05-21T12:13:51;12.90;;;8.43;;
77220;SDS011;66217;50.004;8.266;2023-05-21T12:16:16;12.25;;;8.57;;
77220;SDS011;66217;50.004;8.266;2023-05-21T12:18:42;12.88;;;9.20;;
77220;SDS011;66217;50.004;8.266;2023-05-21T12:21:07;11.75;;;9.07;;
77220;SDS011;66217;50.004;8.266;2023-05-21T12:23:33;10.02;;;8.30;;
77220;SDS011;66217;50.004;8.266;2023-05-21T12:25:59;10.98;;;8.82;;
77220;SDS011;66217;50.004;8.266;2023-05-21T12:28:24;10.95;;;8.45;;
77220;SDS011;66217;50.004;8.266;2023-05-21T12:30:50;14.13;;;8.93;;
77220;SDS011;66217;50.004;8.266;2023-05-21T12:33:15;13.45;;;8.45;;
77220;SDS011;66217;50.004;8.266;2023-05-21T12:35:45;10.68;;;8.25;;
77220;SDS011;66217;50.004;8.266;2023-05-21T12:38:14;9.38;;;7.75;;
77220;SDS011;66217;50.004;8.266;2023-05-21T12:40:40;11.65;;;8.77;;
77220;SDS011;66217;50.004;8.266;2023-05-21T12:43:07;10.95;;;8.50;;
77220;SDS011;66217;50.004;8.266;2023-05-21T12:45:33;11.15;;;7.88;;
77220;SDS011;66217;50.004;8.266;2023-05-21T12:48:01;11.02;;;8.57;;
77220;SDS011;66217;50.004;8.266;2023-05-21T12:50:27;11.05;;;8.02;;
77220;SDS011;66217;50.004;8.266;2023-05-21T12:52:53;10.95;;;7.90;;
77220;SDS011;66217;50.004;8.266;2023-05-21T12:55:20;9.75;;;8.35;;
77220;SDS011;66217;50.004;8.266;2023-05-21T12:57:46;10.85;;;8.05;;
77220;SDS011;66217;50.004;8.266;2023-05-21T13:00:12;9.25;;;7.50;;
77220;SDS011;66217;50.004;8.266;2023-05-21T13:02:41;10.80;;;7.82;;
77220;SDS011;66217;50.004;8.266;2023-05-21T13:05:08;11.27;;;7.30;;
77220;SDS011;66217;50.004;8.266;2023-05-21T13:07:35;9.27;;;7.07;;
77220;SDS011;66217;50.004;8.266;2023-05-21T13:10:02;12.15;;;7.55;;
77220;SDS011;66217;50.004;8.266;2023-05-21T13:12:29;10.98;;;7.30;;
77220;SDS011;66217;50.004;8.266;2023-05-21T13:14:56;10.45;;;7.07;;
77220;SDS011;66217;50.004;8.266;2023-05-21T13:17:23;13.57;;;7.78;;
77220;SDS011;66217;50.004;8.266;2023-05-21T13:20:03;8.60;;;6.80;;
77220;SDS011;66217;50.004;8.266;2023-05-21T13:22:51;8.75;;;6.90;;
77220;SDS011;66217;50.004;8.266;2023-05-21T13:25:21;9.60;;;6.80;;
77220;SDS011;66217;50.004;8.266;2023-05-21T13:27:52;9.90;;;6.90;;
77220;SDS011;66217;50.004;8.266;2023-05-21T13:30:18;13.02;;;7.63;;
77220;SDS011;66217;50.004;8.266;2023-05-21T13:32:45;9.27;;;6.38;;
77220;SDS011;66217;50.004;8.266;2023-05-21T13:35:10;9.90;;;7.20;;
77220;SDS011;66217;50.004;8.266;2023-05-21T13:37:37;11.73;;;7.53;;
77220;SDS011;66217;50.004;8.266;2023-05-21T13:40:03;9.10;;;7.00;;
77220;SDS011;66217;50.004;8.266;2023-05-21T13:42:30;9.15;;;7.07;;
77220;SDS011;66217;50.004;8.266;2023-05-21T13:44:56;9.32;;;7.00;;
77220;SDS011;66217;50.004;8.266;2023-05-21T13:47:21;10.23;;;7.18;;
77220;SDS011;66217;50.004;8.266;2023-05-21T13:49:47;8.63;;;7.03;;
77220;SDS011;66217;50.004;8.266;2023-05-21T13:52:12;10.95;;;7.80;;
77220;SDS011;66217;50.004;8.266;2023-05-21T13:54:38;8.15;;;6.95;;
77220;SDS011;66217;50.004;8.266;2023-05-21T13:57:04;10.25;;;7.30;;
77220;SDS011;66217;50.004;8.266;2023-05-21T13:59:30;9.27;;;7.10;;
77220;SDS011;66217;50.004;8.266;2023-05-21T14:01:55;8.63;;;6.63;;
77220;SDS011;66217;50.004;8.266;2023-05-21T14:04:22;10.45;;;6.90;;
77220;SDS011;66217;50.004;8.266;2023-05-21T14:06:47;9.90;;;7.65;;
77220;SDS011;66217;50.004;8.266;2023-05-21T14:09:13;8.70;;;6.25;;
77220;SDS011;66217;50.004;8.266;2023-05-21T14:11:39;9.13;;;7.22;;
77220;SDS011;66217;50.004;8.266;2023-05-21T14:14:05;8.98;;;7.07;;
77220;SDS011;66217;50.004;8.266;2023-05-21T14:16:31;9.88;;;7.75;;
77220;SDS011;66217;50.004;8.266;2023-05-21T14:18:56;9.80;;;7.07;;
77220;SDS011;66217;50.004;8.266;2023-05-21T14:21:24;9.95;;;7.40;;
77220;SDS011;66217;50.004;8.266;2023-05-21T14:23:50;9.88;;;7.88;;
77220;SDS011;66217;50.004;8.266;2023-05-21T14:26:16;8.98;;;6.93;;
77220;SDS011;66217;50.004;8.266;2023-05-21T14:28:42;9.55;;;7.22;;
77220;SDS011;66217;50.004;8.266;2023-05-21T14:31:08;12.77;;;7.20;;
77220;SDS011;66217;50.004;8.266;2023-05-21T14:33:34;8.40;;;6.97;;
77220;SDS011;66217;50.004;8.266;2023-05-21T14:36:00;13.50;;;7.30;;
77220;SDS011;66217;50.004;8.266;2023-05-21T14:38:26;9.07;;;6.70;;
77220;SDS011;66217;50.004;8.266;2023-05-21T14:40:52;8.68;;;7.38;;
77220;SDS011;66217;50.004;8.266;2023-05-21T14:43:18;8.57;;;7.50;;
77220;SDS011;66217;50.004;8.266;2023-05-21T14:45:43;10.45;;;7.30;;
77220;SDS011;66217;50.004;8.266;2023-05-21T14:48:09;11.85;;;7.63;;
77220;SDS011;66217;50.004;8.266;2023-05-21T14:50:36;10.20;;;6.72;;
77220;SDS011;66217;50.004;8.266;2023-05-21T14:53:03;21.08;;;7.18;;
77220;SDS011;66217;50.004;8.266;2023-05-21T14:55:31;12.77;;;6.93;;
77220;SDS011;66217;50.004;8.266;2023-05-21T14:57:58;11.85;;;7.78;;